createdAt,value
2022-08-03T00:00:48.840Z,19.01
2022-08-03T00:01:51.291Z,18.92
2022-08-03T00:02:53.809Z,18.93
2022-08-03T00:03:56.623Z,19.00
2022-08-03T00:04:58.871Z,19.03
2022-08-03T00:06:04.434Z,19.03
2022-08-03T00:07:07.550Z,18.97
2022-08-03T00:08:09.834Z,18.87
2022-08-03T00:09:12.247Z,18.82
2022-08-03T00:10:14.514Z,18.74
2022-08-03T00:11:17.087Z,18.74
2022-08-03T00:12:19.445Z,18.72
2022-08-03T00:13:21.781Z,18.79
2022-08-03T00:14:24.093Z,18.85
2022-08-03T00:15:26.586Z,18.80
2022-08-03T00:16:29.060Z,18.82
2022-08-03T00:17:31.307Z,18.86
2022-08-03T00:18:53.515Z,18.87
2022-08-03T00:19:55.937Z,18.91
2022-08-03T00:20:58.252Z,18.96
2022-08-03T00:22:00.620Z,19.01
2022-08-03T00:23:04.083Z,19.06
2022-08-03T00:24:06.500Z,19.07
2022-08-03T00:25:08.841Z,18.90
2022-08-03T00:26:11.148Z,18.77
2022-08-03T00:27:15.162Z,18.76
2022-08-03T00:28:19.023Z,18.78
2022-08-03T00:29:21.487Z,18.67
2022-08-03T00:30:23.888Z,18.70
2022-08-03T00:31:51.418Z,18.63
2022-08-03T00:32:54.263Z,18.60
2022-08-03T00:33:58.782Z,18.66
2022-08-03T00:35:08.355Z,18.67
2022-08-03T00:36:12.764Z,18.67
2022-08-03T00:37:15.095Z,18.67
2022-08-03T00:38:20.076Z,18.79
2022-08-03T00:39:22.364Z,18.73
2022-08-03T00:40:24.783Z,18.71
2022-08-03T00:41:27.079Z,18.62
2022-08-03T00:42:29.309Z,18.63
2022-08-03T00:43:31.680Z,18.72
2022-08-03T00:44:40.747Z,18.74
2022-08-03T00:45:43.811Z,18.74
2022-08-03T00:46:46.284Z,18.65
2022-08-03T00:47:48.832Z,18.59
2022-08-03T00:48:51.719Z,18.47
2022-08-03T00:49:54.189Z,18.42
2022-08-03T00:50:56.724Z,18.38
2022-08-03T00:52:00.839Z,18.33
2022-08-03T00:53:12.809Z,18.33
2022-08-03T00:54:16.060Z,18.43
2022-08-03T00:55:18.649Z,18.39
2022-08-03T00:56:20.963Z,18.38
2022-08-03T00:57:23.329Z,18.41
2022-08-03T00:58:25.759Z,18.30
2022-08-03T00:59:28.153Z,18.31
2022-08-03T01:00:30.414Z,18.39
2022-08-03T01:01:32.895Z,18.49
2022-08-03T01:02:35.833Z,18.47
2022-08-03T01:03:38.488Z,18.56
2022-08-03T01:04:40.896Z,18.57
2022-08-03T01:05:52.268Z,18.65
2022-08-03T01:07:03.052Z,18.72
2022-08-03T01:08:07.975Z,18.79
2022-08-03T01:09:45.369Z,18.81
2022-08-03T01:11:10.197Z,18.76
2022-08-03T01:12:39.648Z,18.66
2022-08-03T01:14:04.039Z,18.47
2022-08-03T01:15:25.807Z,18.32
2022-08-03T01:16:39.084Z,18.34
2022-08-03T01:17:56.237Z,18.29
2022-08-03T01:19:13.605Z,18.24
2022-08-03T01:20:18.420Z,18.16
2022-08-03T01:21:52.214Z,18.28
2022-08-03T01:23:21.971Z,18.29
2022-08-03T01:24:26.955Z,18.27
2022-08-03T01:25:31.827Z,18.06
2022-08-03T01:26:52.258Z,18.01
2022-08-03T01:28:23.442Z,17.92
2022-08-03T01:29:34.659Z,18.06
2022-08-03T01:30:41.053Z,18.09
2022-08-03T01:32:59.860Z,18.03
2022-08-03T01:33:22.455Z,17.91
2022-08-03T01:34:31.407Z,17.84
2022-08-03T01:35:46.287Z,17.92
2022-08-03T01:36:53.736Z,17.79
2022-08-03T01:38:07.110Z,17.92
2022-08-03T01:39:11.431Z,17.93
2022-08-03T01:40:16.080Z,17.99
2022-08-03T01:41:22.560Z,17.98
2022-08-03T01:42:25.954Z,18.06
2022-08-03T01:44:26.429Z,18.08
2022-08-03T01:44:55.682Z,18.17
2022-08-03T01:45:59.204Z,18.13
2022-08-03T01:47:03.072Z,18.11
2022-08-03T01:48:06.613Z,18.14
2022-08-03T01:49:11.522Z,18.23
2022-08-03T01:50:15.763Z,18.23
2022-08-03T01:51:22.880Z,18.29
2022-08-03T01:52:26.332Z,18.27
2022-08-03T01:53:31.140Z,18.30
2022-08-03T01:54:46.527Z,18.30
2022-08-03T01:55:52.572Z,18.37
2022-08-03T01:56:58.375Z,18.36
2022-08-03T01:58:06.126Z,18.42
2022-08-03T01:59:11.689Z,18.35
2022-08-03T02:00:14.869Z,18.33
2022-08-03T02:01:22.610Z,18.30
2022-08-03T02:02:33.262Z,18.12
2022-08-03T02:04:00.782Z,18.00
2022-08-03T02:05:10.602Z,17.90
2022-08-03T02:07:00.696Z,17.74
2022-08-03T02:07:39.800Z,17.75
2022-08-03T02:08:44.947Z,17.67
2022-08-03T02:09:51.412Z,17.67
2022-08-03T02:10:56.969Z,17.61
2022-08-03T02:12:00.830Z,17.75
2022-08-03T02:13:05.960Z,17.82
2022-08-03T02:14:09.261Z,17.82
2022-08-03T02:15:15.218Z,17.76
2022-08-03T02:16:19.001Z,17.77
2022-08-03T02:17:38.530Z,17.83
2022-08-03T02:18:42.574Z,17.82
2022-08-03T02:19:45.965Z,17.74
2022-08-03T02:20:50.052Z,17.67
2022-08-03T02:21:56.893Z,17.77
2022-08-03T02:23:04.014Z,17.81
2022-08-03T02:24:06.656Z,17.88
2022-08-03T02:25:11.731Z,17.80
2022-08-03T02:26:17.322Z,17.84
2022-08-03T02:27:25.659Z,17.75
2022-08-03T02:28:38.212Z,17.53
2022-08-03T02:29:42.636Z,17.52
2022-08-03T02:30:47.113Z,17.54
2022-08-03T02:31:59.341Z,17.44
2022-08-03T02:33:02.935Z,17.42
2022-08-03T02:34:09.822Z,17.46
2022-08-03T02:35:15.395Z,17.47
2022-08-03T02:36:23.455Z,17.39
2022-08-03T02:37:28.928Z,17.40
2022-08-03T02:38:36.538Z,17.36
2022-08-03T02:39:41.892Z,17.56
2022-08-03T02:40:45.642Z,17.68
2022-08-03T02:41:52.353Z,17.77
2022-08-03T02:42:57.964Z,17.86
2022-08-03T02:44:06.878Z,17.89
2022-08-03T02:45:13.932Z,17.91
2022-08-03T02:46:19.695Z,17.94
2022-08-03T02:47:23.713Z,17.96
2022-08-03T02:48:30.914Z,18.02
2022-08-03T02:49:40.863Z,17.94
2022-08-03T02:50:57.519Z,18.00
2022-08-03T02:52:04.177Z,18.04
2022-08-03T02:53:07.871Z,18.06
2022-08-03T02:54:11.616Z,18.01
2022-08-03T02:55:15.276Z,17.92
2022-08-03T02:56:19.350Z,17.83
2022-08-03T02:57:23.210Z,17.69
2022-08-03T02:58:26.238Z,17.71
2022-08-03T02:59:31.244Z,17.76
2022-08-03T03:00:34.499Z,17.73
2022-08-03T03:01:39.275Z,17.62
2022-08-03T03:02:44.619Z,17.51
2022-08-03T03:03:49.100Z,17.37
2022-08-03T03:04:55.015Z,17.34
2022-08-03T03:06:17.779Z,17.33
2022-08-03T03:07:22.246Z,17.31
2022-08-03T03:08:28.756Z,17.26
2022-08-03T03:09:41.588Z,17.38
2022-08-03T03:10:45.136Z,17.30
2022-08-03T03:11:50.784Z,17.29
2022-08-03T03:12:58.280Z,17.36
2022-08-03T03:14:01.042Z,17.40
2022-08-03T03:15:06.432Z,17.48
2022-08-03T03:16:09.950Z,17.50
2022-08-03T03:17:12.467Z,17.37
2022-08-03T03:18:20.198Z,17.15
2022-08-03T03:19:25.860Z,17.16
2022-08-03T03:20:30.170Z,17.30
2022-08-03T03:21:33.872Z,17.25
2022-08-03T03:22:37.584Z,17.23
2022-08-03T03:23:43.470Z,17.26
2022-08-03T03:24:47.858Z,17.28
2022-08-03T03:25:51.816Z,17.26
2022-08-03T03:26:54.378Z,17.16
2022-08-03T03:27:57.100Z,17.23
2022-08-03T03:29:01.890Z,17.30
2022-08-03T03:30:04.718Z,17.31
2022-08-03T03:31:07.993Z,17.19
2022-08-03T03:32:10.565Z,17.25
2022-08-03T03:33:13.106Z,17.38
2022-08-03T03:34:15.634Z,17.51
2022-08-03T03:35:18.969Z,17.54
2022-08-03T03:36:21.208Z,17.57
2022-08-03T03:37:23.520Z,17.55
2022-08-03T03:38:26.069Z,17.48
2022-08-03T03:39:28.407Z,17.37
2022-08-03T03:40:30.695Z,17.37
2022-08-03T03:41:33.711Z,17.31
2022-08-03T03:42:38.302Z,17.23
2022-08-03T03:43:40.627Z,17.10
2022-08-03T03:44:42.928Z,17.17
2022-08-03T03:45:47.364Z,17.32
2022-08-03T03:46:49.696Z,17.35
2022-08-03T03:47:52.056Z,17.40
2022-08-03T03:48:54.499Z,17.24
2022-08-03T03:49:57.816Z,17.09
2022-08-03T03:51:01.100Z,17.04
2022-08-03T03:52:03.480Z,17.03
2022-08-03T03:53:09.263Z,17.07
2022-08-03T03:54:11.610Z,17.11
2022-08-03T03:55:18.128Z,17.26
2022-08-03T03:56:21.384Z,17.30
2022-08-03T03:57:23.707Z,17.22
2022-08-03T03:58:26.219Z,17.20
2022-08-03T03:59:28.482Z,17.14
2022-08-03T04:00:31.223Z,17.16
2022-08-03T04:01:33.636Z,17.11
2022-08-03T04:02:36.197Z,17.05
2022-08-03T04:03:38.549Z,17.11
2022-08-03T04:04:59.693Z,17.16
2022-08-03T04:06:20.898Z,17.14
2022-08-03T04:07:43.649Z,17.13
2022-08-03T04:09:04.775Z,17.19
2022-08-03T04:10:32.667Z,17.11
2022-08-03T04:11:40.740Z,17.13
2022-08-03T04:12:50.554Z,17.15
2022-08-03T04:14:01.742Z,17.17
2022-08-03T04:15:06.404Z,17.09
2022-08-03T04:16:12.318Z,17.12
2022-08-03T04:17:15.648Z,17.10
2022-08-03T04:18:19.708Z,17.03
2022-08-03T04:19:30.859Z,16.97
2022-08-03T04:20:37.454Z,17.04
2022-08-03T04:21:43.389Z,16.99
2022-08-03T04:22:49.677Z,17.08
2022-08-03T04:23:55.887Z,17.09
2022-08-03T04:25:03.147Z,17.44
2022-08-03T04:26:09.900Z,18.16
2022-08-03T04:27:15.637Z,19.48
2022-08-03T04:28:31.214Z,20.67
2022-08-03T04:29:36.215Z,21.59
2022-08-03T04:30:47.572Z,22.21
2022-08-03T04:31:52.380Z,22.90
2022-08-03T04:32:57.482Z,23.75
2022-08-03T04:33:59.849Z,24.63
2022-08-03T04:35:02.715Z,25.66
2022-08-03T04:36:08.741Z,26.58
2022-08-03T04:37:14.700Z,26.84
2022-08-03T04:38:19.265Z,27.57
2022-08-03T04:39:26.725Z,28.20
2022-08-03T04:40:35.238Z,28.67
2022-08-03T04:42:06.913Z,29.11
2022-08-03T04:43:02.954Z,29.88
2022-08-03T04:44:07.202Z,30.48
2022-08-03T04:45:12.906Z,30.83
2022-08-03T04:46:15.586Z,30.92
2022-08-03T04:47:18.109Z,31.24
2022-08-03T04:48:21.125Z,31.61
2022-08-03T04:49:24.590Z,31.87
2022-08-03T04:50:28.123Z,31.64
2022-08-03T04:51:40.536Z,31.60
2022-08-03T04:52:43.067Z,31.58
2022-08-03T04:53:45.542Z,32.56
2022-08-03T04:54:50.842Z,32.51
2022-08-03T04:55:53.517Z,32.62
2022-08-03T04:56:55.857Z,32.88
2022-08-03T04:57:59.084Z,32.64
2022-08-03T04:59:01.691Z,32.51
2022-08-03T05:00:05.665Z,32.66
2022-08-03T05:01:08.088Z,32.74
2022-08-03T05:02:10.549Z,32.56
2022-08-03T05:03:23.935Z,32.83
2022-08-03T05:04:27.465Z,32.88
2022-08-03T05:05:48.629Z,32.92
2022-08-03T05:06:54.127Z,33.31
2022-08-03T05:07:57.577Z,33.54
2022-08-03T05:09:04.240Z,33.77
2022-08-03T05:10:14.833Z,33.52
2022-08-03T05:11:18.976Z,33.59
2022-08-03T05:12:21.376Z,33.30
2022-08-03T05:13:23.848Z,33.11
2022-08-03T05:14:28.177Z,33.02
2022-08-03T05:15:30.765Z,32.80
2022-08-03T05:16:33.102Z,32.90
2022-08-03T05:17:35.409Z,33.43
2022-08-03T05:18:37.959Z,33.80
2022-08-03T05:19:40.331Z,33.90
2022-08-03T05:20:42.650Z,33.17
2022-08-03T05:21:52.431Z,33.06
2022-08-03T05:22:55.304Z,32.13
2022-08-03T05:23:57.699Z,32.60
2022-08-03T05:25:01.768Z,33.06
2022-08-03T05:26:04.145Z,33.06
2022-08-03T05:27:06.507Z,33.13
2022-08-03T05:28:08.899Z,33.40
2022-08-03T05:29:11.268Z,33.59
2022-08-03T05:30:31.684Z,33.29
2022-08-03T05:31:36.158Z,34.28
2022-08-03T05:32:38.440Z,33.69
2022-08-03T05:33:41.061Z,33.90
2022-08-03T05:34:44.041Z,34.01
2022-08-03T05:36:01.347Z,33.92
2022-08-03T05:37:07.308Z,34.18
2022-08-03T05:38:10.275Z,34.73
2022-08-03T05:39:12.939Z,35.08
2022-08-03T05:40:15.214Z,35.87
2022-08-03T05:41:21.247Z,34.63
2022-08-03T05:42:26.200Z,35.08
2022-08-03T05:43:31.946Z,35.11
2022-08-03T05:44:34.403Z,34.73
2022-08-03T05:45:37.127Z,34.49
2022-08-03T05:46:39.453Z,34.67
2022-08-03T05:47:44.227Z,34.19
2022-08-03T05:48:46.672Z,34.56
2022-08-03T05:49:48.880Z,34.75
2022-08-03T05:50:51.094Z,35.52
2022-08-03T05:51:59.935Z,34.98
2022-08-03T05:53:14.253Z,35.54
2022-08-03T05:54:17.899Z,36.00
2022-08-03T05:55:20.251Z,36.10
2022-08-03T05:56:26.736Z,35.72
2022-08-03T05:57:28.975Z,34.88
2022-08-03T05:58:31.216Z,34.75
2022-08-03T05:59:38.836Z,35.14
2022-08-03T06:00:41.147Z,35.65
2022-08-03T06:01:43.469Z,36.04
2022-08-03T06:02:45.874Z,36.30
2022-08-03T06:03:49.503Z,36.78
2022-08-03T06:04:51.891Z,35.61
2022-08-03T06:06:00.469Z,34.78
2022-08-03T06:07:03.465Z,35.02
2022-08-03T06:08:05.762Z,36.02
2022-08-03T06:09:08.004Z,35.68
2022-08-03T06:10:35.258Z,35.03
2022-08-03T06:11:32.825Z,35.42
2022-08-03T06:12:41.054Z,34.81
2022-08-03T06:13:43.999Z,34.55
2022-08-03T06:14:46.446Z,34.19
2022-08-03T06:15:48.838Z,35.20
2022-08-03T06:16:51.158Z,35.96
2022-08-03T06:17:53.570Z,35.74
2022-08-03T06:18:55.929Z,35.93
2022-08-03T06:19:58.463Z,35.08
2022-08-03T06:21:14.391Z,35.37
2022-08-03T06:22:18.781Z,34.90
2022-08-03T06:23:21.359Z,35.24
2022-08-03T06:24:25.119Z,35.33
2022-08-03T06:25:27.631Z,34.89
2022-08-03T06:26:30.085Z,35.71
2022-08-03T06:27:37.024Z,34.36
2022-08-03T06:28:52.357Z,35.19
2022-08-03T06:29:56.154Z,35.21
2022-08-03T06:30:58.786Z,35.09
2022-08-03T06:32:01.209Z,35.92
2022-08-03T06:33:03.652Z,36.04
2022-08-03T06:34:32.989Z,35.19
2022-08-03T06:35:33.394Z,35.30
2022-08-03T06:36:37.638Z,35.17
2022-08-03T06:37:47.399Z,36.28
2022-08-03T06:38:49.712Z,35.80
2022-08-03T06:39:52.081Z,34.43
2022-08-03T06:40:54.427Z,35.42
2022-08-03T06:41:56.751Z,34.90
2022-08-03T06:43:00.201Z,36.65
2022-08-03T06:44:04.507Z,36.92
2022-08-03T06:45:08.999Z,36.40
2022-08-03T06:46:11.490Z,36.20
2022-08-03T06:47:13.844Z,36.63
2022-08-03T06:48:16.326Z,36.43
2022-08-03T06:49:19.008Z,36.26
2022-08-03T06:50:26.029Z,36.58
2022-08-03T06:52:04.441Z,37.08
2022-08-03T06:52:51.747Z,36.27
2022-08-03T06:53:54.138Z,36.19
2022-08-03T06:54:56.460Z,35.35
2022-08-03T06:55:58.894Z,35.58
2022-08-03T06:57:01.316Z,34.92
2022-08-03T06:58:03.834Z,35.72
2022-08-03T06:59:06.240Z,34.83
2022-08-03T07:00:12.460Z,34.72
2022-08-03T07:01:15.476Z,35.99
2022-08-03T07:02:21.766Z,35.87
2022-08-03T07:03:24.613Z,36.20
2022-08-03T07:04:27.067Z,36.54
2022-08-03T07:05:30.634Z,36.19
2022-08-03T07:06:33.265Z,35.95
2022-08-03T07:07:35.869Z,34.87
2022-08-03T07:08:38.457Z,35.18
2022-08-03T07:09:40.824Z,35.21
2022-08-03T07:10:45.548Z,35.69
2022-08-03T07:11:47.977Z,34.06
2022-08-03T07:12:56.280Z,32.49
2022-08-03T07:13:59.576Z,30.94
2022-08-03T07:15:03.453Z,30.29
2022-08-03T07:16:07.254Z,28.98
2022-08-03T07:17:11.762Z,28.56
2022-08-03T07:18:14.549Z,28.35
2022-08-03T07:19:17.094Z,28.16
2022-08-03T07:20:19.619Z,27.74
2022-08-03T07:21:22.009Z,27.59
2022-08-03T07:22:24.355Z,27.47
2022-08-03T07:23:27.164Z,27.56
2022-08-03T07:24:30.047Z,27.25
2022-08-03T07:25:32.918Z,26.89
2022-08-03T07:26:35.669Z,26.75
2022-08-03T07:27:38.506Z,27.11
2022-08-03T07:28:41.143Z,27.07
2022-08-03T07:29:43.840Z,27.16
2022-08-03T07:30:46.794Z,27.48
2022-08-03T07:31:49.531Z,27.46
2022-08-03T07:32:51.900Z,27.67
2022-08-03T07:33:54.261Z,27.57
2022-08-03T07:35:00.549Z,27.50
2022-08-03T07:36:03.600Z,27.24
2022-08-03T07:37:05.997Z,27.17
2022-08-03T07:38:08.314Z,27.15
2022-08-03T07:39:17.556Z,27.67
2022-08-03T07:40:20.524Z,27.51
2022-08-03T07:41:22.876Z,27.46
2022-08-03T07:42:25.767Z,27.59
2022-08-03T07:43:28.095Z,27.42
2022-08-03T07:44:30.498Z,27.53
2022-08-03T07:45:33.027Z,27.66
2022-08-03T07:46:35.412Z,28.11
2022-08-03T07:47:37.829Z,28.23
2022-08-03T07:48:40.106Z,28.28
2022-08-03T07:49:42.543Z,28.05
2022-08-03T07:50:45.109Z,27.84
2022-08-03T07:52:07.389Z,27.60
2022-08-03T07:53:09.799Z,27.48
2022-08-03T07:54:12.223Z,27.57
2022-08-03T07:55:16.379Z,27.81
2022-08-03T07:56:19.619Z,28.18
2022-08-03T07:57:21.950Z,28.49
2022-08-03T07:58:24.676Z,28.18
2022-08-03T07:59:26.997Z,28.07
2022-08-03T08:00:29.722Z,27.83
2022-08-03T08:01:34.131Z,27.89
2022-08-03T08:02:36.525Z,28.06
2022-08-03T08:03:52.935Z,28.30
2022-08-03T08:04:56.015Z,28.32
2022-08-03T08:05:58.560Z,28.22
2022-08-03T08:07:01.158Z,27.99
2022-08-03T08:08:04.088Z,28.02
2022-08-03T08:09:06.621Z,28.27
2022-08-03T08:10:10.464Z,28.48
2022-08-03T08:11:13.034Z,28.65
2022-08-03T08:12:16.090Z,28.59
2022-08-03T08:13:18.787Z,28.64
2022-08-03T08:14:21.251Z,28.86
2022-08-03T08:15:23.722Z,28.71
2022-08-03T08:16:26.070Z,28.67
2022-08-03T08:17:28.470Z,29.26
2022-08-03T08:18:31.696Z,29.21
2022-08-03T08:19:36.800Z,29.22
2022-08-03T08:20:43.827Z,29.18
2022-08-03T08:21:54.054Z,29.00
2022-08-03T08:23:19.288Z,29.11
2022-08-03T08:24:33.971Z,29.08
2022-08-03T08:25:37.194Z,29.62
2022-08-03T08:26:39.635Z,29.93
2022-08-03T08:28:31.174Z,30.07
2022-08-03T08:29:09.159Z,29.43
2022-08-03T08:30:15.999Z,29.55
2022-08-03T08:31:21.247Z,29.67
2022-08-03T08:32:23.622Z,29.54
2022-08-03T08:33:33.211Z,29.39
2022-08-03T08:34:45.083Z,29.71
2022-08-03T08:35:47.846Z,29.74
2022-08-03T08:36:50.610Z,29.64
2022-08-03T08:37:53.392Z,29.62
2022-08-03T08:38:56.450Z,29.59
2022-08-03T08:39:59.460Z,30.08
2022-08-03T08:41:02.098Z,29.85
2022-08-03T08:42:05.131Z,30.03
2022-08-03T08:43:07.845Z,30.11
2022-08-03T08:44:10.503Z,30.14
2022-08-03T08:45:15.584Z,30.12
2022-08-03T08:46:23.249Z,30.66
2022-08-03T08:47:30.801Z,30.76
2022-08-03T08:48:54.722Z,30.11
2022-08-03T08:50:09.764Z,29.98
2022-08-03T08:51:14.125Z,30.74
2022-08-03T08:52:24.983Z,30.84
2022-08-03T08:53:29.486Z,30.87
2022-08-03T08:54:33.489Z,30.68
2022-08-03T08:55:58.595Z,31.01
2022-08-03T08:57:09.109Z,30.86
2022-08-03T08:58:21.877Z,30.37
2022-08-03T08:59:25.562Z,30.31
2022-08-03T09:00:28.094Z,30.74
2022-08-03T09:01:30.646Z,30.78
2022-08-03T09:02:33.187Z,30.95
2022-08-03T09:03:36.045Z,31.39
2022-08-03T09:04:39.901Z,31.73
2022-08-03T09:05:55.919Z,32.12
2022-08-03T09:07:18.750Z,32.28
2022-08-03T09:08:23.153Z,31.94
2022-08-03T09:10:08.397Z,31.35
2022-08-03T09:10:48.120Z,30.97
2022-08-03T09:11:51.763Z,30.84
2022-08-03T09:13:08.212Z,31.07
2022-08-03T09:14:35.228Z,31.21
2022-08-03T09:15:34.281Z,31.08
2022-08-03T09:16:36.749Z,30.90
2022-08-03T09:17:40.645Z,31.53
2022-08-03T09:18:46.099Z,31.71
2022-08-03T09:20:10.805Z,32.26
2022-08-03T09:21:31.579Z,32.73
2022-08-03T09:22:35.141Z,32.69
2022-08-03T09:24:02.441Z,32.70
2022-08-03T09:25:27.217Z,32.63
2022-08-03T09:26:31.648Z,32.80
2022-08-03T09:27:44.881Z,32.78
2022-08-03T09:29:00.688Z,32.50
2022-08-03T09:30:33.837Z,31.91
2022-08-03T09:31:39.739Z,31.88
2022-08-03T09:32:47.275Z,32.42
2022-08-03T09:33:49.670Z,32.73
2022-08-03T09:34:57.829Z,32.37
2022-08-03T09:36:00.483Z,32.40
2022-08-03T09:37:12.526Z,32.92
2022-08-03T09:38:27.258Z,32.56
2022-08-03T09:39:42.200Z,32.70
2022-08-03T09:40:46.086Z,32.55
2022-08-03T09:42:07.347Z,32.03
2022-08-03T09:43:10.586Z,32.22
2022-08-03T09:44:24.143Z,32.17
2022-08-03T09:45:29.918Z,32.06
2022-08-03T09:46:33.246Z,32.25
2022-08-03T09:47:44.994Z,32.11
2022-08-03T09:48:47.566Z,32.96
2022-08-03T09:50:04.677Z,32.64
2022-08-03T09:51:14.490Z,32.54
2022-08-03T09:52:48.324Z,32.82
2022-08-03T09:54:00.268Z,32.18
2022-08-03T09:55:23.532Z,32.08
2022-08-03T09:56:45.031Z,32.17
2022-08-03T09:57:47.347Z,31.72
2022-08-03T09:58:51.122Z,31.63
2022-08-03T10:00:08.157Z,32.43
2022-08-03T10:01:25.298Z,33.36
2022-08-03T10:02:28.002Z,33.16
2022-08-03T10:03:33.338Z,32.89
2022-08-03T10:04:47.240Z,33.28
2022-08-03T10:05:49.505Z,33.67
2022-08-03T10:07:04.072Z,34.38
2022-08-03T10:08:15.168Z,34.36
2022-08-03T10:09:17.550Z,34.14
2022-08-03T10:10:31.382Z,33.60
2022-08-03T10:11:40.898Z,33.31
2022-08-03T10:12:45.037Z,33.62
2022-08-03T10:13:48.454Z,33.02
2022-08-03T10:14:52.318Z,32.91
2022-08-03T10:16:22.023Z,33.50
2022-08-03T10:17:17.196Z,34.25
2022-08-03T10:18:19.701Z,34.57
2022-08-03T10:19:22.297Z,34.69
2022-08-03T10:20:25.347Z,34.94
2022-08-03T10:21:33.795Z,33.85
2022-08-03T10:22:39.716Z,34.52
2022-08-03T10:23:42.503Z,34.93
2022-08-03T10:24:53.187Z,35.34
2022-08-03T10:26:03.338Z,35.55
2022-08-03T10:27:11.389Z,34.97
2022-08-03T10:28:16.719Z,33.81
2022-08-03T10:29:25.055Z,33.07
2022-08-03T10:30:28.786Z,33.54
2022-08-03T10:31:38.488Z,33.57
2022-08-03T10:33:03.495Z,33.46
2022-08-03T10:34:14.970Z,33.82
2022-08-03T10:35:21.593Z,33.91
2022-08-03T10:36:27.373Z,34.49
2022-08-03T10:37:32.374Z,35.03
2022-08-03T10:38:47.005Z,35.38
2022-08-03T10:39:53.790Z,35.58
2022-08-03T10:40:59.037Z,35.67
2022-08-03T10:42:03.243Z,35.77
2022-08-03T10:43:20.839Z,36.27
2022-08-03T10:44:25.974Z,34.98
2022-08-03T10:45:28.293Z,34.37
2022-08-03T10:46:31.396Z,34.19
2022-08-03T10:47:34.695Z,33.84
2022-08-03T10:48:38.096Z,33.95
2022-08-03T10:49:41.540Z,34.03
2022-08-03T10:50:46.568Z,34.25
2022-08-03T10:51:52.747Z,33.66
2022-08-03T10:53:07.341Z,33.60
2022-08-03T10:54:57.777Z,33.44
2022-08-03T10:56:35.358Z,33.72
2022-08-03T10:57:58.429Z,33.18
2022-08-03T10:59:03.818Z,33.66
2022-08-03T11:00:07.500Z,33.71
2022-08-03T11:01:12.029Z,33.83
2022-08-03T11:02:15.449Z,33.44
2022-08-03T11:03:18.510Z,33.21
2022-08-03T11:04:22.055Z,33.20
2022-08-03T11:05:28.926Z,33.25
2022-08-03T11:06:37.262Z,33.35
2022-08-03T11:07:40.072Z,34.32
2022-08-03T11:08:42.441Z,34.90
2022-08-03T11:09:49.301Z,35.46
2022-08-03T11:10:55.103Z,35.72
2022-08-03T11:11:57.532Z,35.94
2022-08-03T11:13:10.950Z,35.96
2022-08-03T11:14:21.610Z,36.17
2022-08-03T11:15:34.478Z,35.68
2022-08-03T11:16:47.990Z,35.70
2022-08-03T11:18:11.220Z,36.19
2022-08-03T11:19:17.157Z,36.19
2022-08-03T11:20:46.797Z,36.53
2022-08-03T11:21:51.570Z,36.71
2022-08-03T11:22:54.869Z,36.90
2022-08-03T11:24:05.524Z,36.38
2022-08-03T11:25:08.867Z,36.55
2022-08-03T11:26:31.168Z,36.06
2022-08-03T11:27:34.087Z,34.15
2022-08-03T11:28:38.916Z,33.89
2022-08-03T11:30:18.636Z,33.35
2022-08-03T11:31:47.215Z,34.03
2022-08-03T11:32:49.097Z,33.83
2022-08-03T11:34:08.551Z,33.77
2022-08-03T11:35:12.236Z,33.63
2022-08-03T11:36:16.424Z,34.48
2022-08-03T11:37:34.571Z,35.31
2022-08-03T11:39:18.033Z,35.11
2022-08-03T11:40:50.350Z,35.15
2022-08-03T11:41:52.683Z,35.07
2022-08-03T11:42:54.992Z,34.72
2022-08-03T11:43:57.301Z,33.99
2022-08-03T11:45:00.660Z,33.97
2022-08-03T11:46:07.994Z,33.67
2022-08-03T11:47:17.503Z,33.96
2022-08-03T11:48:20.687Z,34.19
2022-08-03T11:49:24.143Z,34.35
2022-08-03T11:50:26.579Z,33.98
2022-08-03T11:51:32.061Z,34.13
2022-08-03T11:52:37.341Z,34.47
2022-08-03T11:53:41.904Z,34.04
2022-08-03T11:54:44.556Z,33.63
2022-08-03T11:55:50.940Z,33.78
2022-08-03T11:56:53.256Z,33.94
2022-08-03T11:59:16.813Z,33.72
2022-08-03T11:59:32.868Z,33.45
2022-08-03T12:00:35.347Z,33.86
2022-08-03T12:01:38.928Z,34.37
2022-08-03T12:02:57.752Z,35.13
2022-08-03T12:04:04.740Z,35.75
2022-08-03T12:05:10.027Z,35.73
2022-08-03T12:06:14.586Z,35.29
2022-08-03T12:07:25.016Z,35.46
2022-08-03T12:08:41.853Z,35.71
2022-08-03T12:10:05.970Z,35.78
2022-08-03T12:11:10.544Z,36.02
2022-08-03T12:12:16.437Z,35.73
2022-08-03T12:14:27.419Z,35.49
2022-08-03T12:14:49.771Z,35.61
2022-08-03T12:15:57.371Z,36.00
2022-08-03T12:16:59.701Z,36.28
2022-08-03T12:18:04.005Z,36.35
2022-08-03T12:19:06.959Z,36.38
2022-08-03T12:20:20.581Z,36.55
2022-08-03T12:21:56.705Z,36.92
2022-08-03T12:23:06.980Z,37.23
2022-08-03T12:24:09.494Z,37.14
2022-08-03T12:25:38.847Z,35.91
2022-08-03T12:26:46.336Z,35.50
2022-08-03T12:28:36.462Z,35.77
2022-08-03T12:29:38.507Z,34.84
2022-08-03T12:30:40.869Z,34.82
2022-08-03T12:31:43.155Z,34.94
2022-08-03T12:32:46.063Z,35.22
2022-08-03T12:33:55.003Z,34.67
2022-08-03T12:35:01.000Z,34.62
2022-08-03T12:36:09.405Z,34.61
2022-08-03T12:37:19.027Z,35.35
2022-08-03T12:38:25.169Z,35.62
2022-08-03T12:39:30.986Z,36.09
2022-08-03T12:40:33.798Z,36.55
2022-08-03T12:41:41.338Z,36.94
2022-08-03T12:42:43.603Z,35.98
2022-08-03T12:43:49.903Z,36.76
2022-08-03T12:44:56.369Z,36.38
2022-08-03T12:46:13.645Z,35.56
2022-08-03T12:47:16.005Z,35.51
2022-08-03T12:48:18.329Z,35.73
2022-08-03T12:49:26.563Z,35.65
2022-08-03T12:50:33.741Z,34.91
2022-08-03T12:51:55.164Z,35.06
2022-08-03T12:52:59.200Z,34.99
2022-08-03T12:54:03.082Z,34.43
2022-08-03T12:55:05.739Z,34.08
2022-08-03T12:56:08.047Z,34.54
2022-08-03T12:57:15.986Z,34.75
2022-08-03T12:58:33.452Z,34.78
2022-08-03T12:59:42.440Z,34.69
2022-08-03T13:00:56.011Z,35.07
2022-08-03T13:01:59.555Z,34.97
2022-08-03T13:04:34.783Z,35.66
2022-08-03T13:05:46.580Z,35.26
2022-08-03T13:07:06.609Z,35.46
2022-08-03T13:08:21.430Z,34.75
2022-08-03T13:09:26.181Z,34.90
2022-08-03T13:10:31.068Z,35.44
2022-08-03T13:11:53.604Z,35.62
2022-08-03T13:12:59.056Z,35.98
2022-08-03T13:14:02.844Z,36.48
2022-08-03T13:15:05.663Z,36.87
2022-08-03T13:16:07.992Z,37.24
2022-08-03T13:17:10.614Z,37.40
2022-08-03T13:18:12.858Z,37.15
2022-08-03T13:19:19.734Z,37.09
2022-08-03T13:20:22.841Z,37.37
2022-08-03T13:21:28.985Z,37.39
2022-08-03T13:22:32.979Z,37.59
2022-08-03T13:23:35.283Z,37.68
2022-08-03T13:24:37.706Z,37.62
2022-08-03T13:25:39.996Z,37.19
2022-08-03T13:26:58.735Z,37.46
2022-08-03T13:28:11.112Z,37.67
2022-08-03T13:29:25.174Z,37.40
2022-08-03T13:30:30.430Z,36.44
2022-08-03T13:31:33.079Z,36.41
2022-08-03T13:32:35.726Z,36.49
2022-08-03T13:33:39.055Z,36.95
2022-08-03T13:34:41.401Z,37.26
2022-08-03T13:35:43.726Z,37.03
2022-08-03T13:37:08.072Z,37.36
2022-08-03T13:38:08.631Z,37.57
2022-08-03T13:39:10.985Z,37.75
2022-08-03T13:40:16.515Z,37.82
2022-08-03T13:41:19.420Z,37.82
2022-08-03T13:42:34.896Z,37.84
2022-08-03T13:43:37.221Z,37.74
2022-08-03T13:44:39.597Z,37.30
2022-08-03T13:45:43.628Z,36.46
2022-08-03T13:46:49.918Z,36.36
2022-08-03T13:47:52.225Z,36.33
2022-08-03T13:48:54.560Z,36.89
2022-08-03T13:50:00.844Z,37.18
2022-08-03T13:51:22.265Z,37.08
2022-08-03T13:52:25.231Z,35.78
2022-08-03T13:53:27.586Z,35.62
2022-08-03T13:54:30.762Z,35.57
2022-08-03T13:55:33.533Z,35.54
2022-08-03T13:56:35.877Z,36.00
2022-08-03T13:58:04.846Z,36.65
2022-08-03T13:59:00.707Z,36.89
2022-08-03T14:00:05.754Z,35.82
2022-08-03T14:01:08.252Z,35.37
2022-08-03T14:02:10.630Z,35.15
2022-08-03T14:03:14.424Z,35.10
2022-08-03T14:04:22.034Z,35.06
2022-08-03T14:05:24.704Z,35.01
2022-08-03T14:06:26.986Z,35.09
2022-08-03T14:07:29.276Z,35.10
2022-08-03T14:08:31.633Z,35.23
2022-08-03T14:09:34.086Z,35.71
2022-08-03T14:10:38.056Z,36.06
2022-08-03T14:12:06.910Z,36.10
2022-08-03T14:13:04.605Z,36.90
2022-08-03T14:14:06.877Z,36.92
2022-08-03T14:15:10.161Z,36.71
2022-08-03T14:16:12.546Z,36.75
2022-08-03T14:17:20.066Z,36.93
2022-08-03T14:18:28.458Z,37.32
2022-08-03T14:19:40.569Z,37.58
2022-08-03T14:21:00.689Z,37.40
2022-08-03T14:22:07.222Z,36.40
2022-08-03T14:23:09.501Z,36.87
2022-08-03T14:24:11.812Z,37.25
2022-08-03T14:25:14.122Z,37.50